sensor_id;sensor_type;location;lat;lon;timestamp;P1;durP1;ratioP1;P2;durP2;ratioP2
18376;SDS011;9315;52.624;13.544;2022-11-20T00:01:32;58.80;;;22.93;;
18376;SDS011;9315;52.624;13.544;2022-11-20T00:04:00;71.67;;;30.53;;
18376;SDS011;9315;52.624;13.544;2022-11-20T00:06:27;108.70;;;43.33;;
18376;SDS011;9315;52.624;13.544;2022-11-20T00:08:56;41.50;;;16.47;;
18376;SDS011;9315;52.624;13.544;2022-11-20T00:11:26;35.20;;;16.33;;
18376;SDS011;9315;52.624;13.544;2022-11-20T00:13:58;95.90;;;38.67;;
18376;SDS011;9315;52.624;13.544;2022-11-20T00:16:28;108.03;;;45.87;;
18376;SDS011;9315;52.624;13.544;2022-11-20T00:18:58;71.23;;;29.33;;
18376;SDS011;9315;52.624;13.544;2022-11-20T00:21:26;84.13;;;35.53;;
18376;SDS011;9315;52.624;13.544;2022-11-20T00:23:55;38.57;;;14.77;;
18376;SDS011;9315;52.624;13.544;2022-11-20T00:26:24;35.53;;;14.00;;
18376;SDS011;9315;52.624;13.544;2022-11-20T00:28:55;46.47;;;19.07;;
18376;SDS011;9315;52.624;13.544;2022-11-20T00:31:25;42.70;;;20.40;;
18376;SDS011;9315;52.624;13.544;2022-11-20T00:33:53;36.80;;;17.30;;
18376;SDS011;9315;52.624;13.544;2022-11-20T00:36:22;35.23;;;15.57;;
18376;SDS011;9315;52.624;13.544;2022-11-20T00:38:53;35.00;;;16.90;;
18376;SDS011;9315;52.624;13.544;2022-11-20T00:41:25;27.27;;;13.40;;
18376;SDS011;9315;52.624;13.544;2022-11-20T00:43:55;32.63;;;13.40;;
18376;SDS011;9315;52.624;13.544;2022-11-20T00:46:23;29.00;;;11.87;;
18376;SDS011;9315;52.624;13.544;2022-11-20T00:48:53;30.83;;;14.20;;
18376;SDS011;9315;52.624;13.544;2022-11-20T00:51:21;31.20;;;12.87;;
18376;SDS011;9315;52.624;13.544;2022-11-20T00:53:51;28.03;;;12.17;;
18376;SDS011;9315;52.624;13.544;2022-11-20T00:56:21;33.13;;;12.83;;
18376;SDS011;9315;52.624;13.544;2022-11-20T00:58:48;30.30;;;12.77;;
18376;SDS011;9315;52.624;13.544;2022-11-20T01:01:16;31.90;;;13.27;;
18376;SDS011;9315;52.624;13.544;2022-11-20T01:03:49;30.37;;;11.93;;
18376;SDS011;9315;52.624;13.544;2022-11-20T01:06:22;34.90;;;12.40;;
18376;SDS011;9315;52.624;13.544;2022-11-20T01:09:09;30.83;;;11.80;;
18376;SDS011;9315;52.624;13.544;2022-11-20T01:11:41;30.70;;;12.40;;
18376;SDS011;9315;52.624;13.544;2022-11-20T01:14:11;29.83;;;12.23;;
18376;SDS011;9315;52.624;13.544;2022-11-20T01:16:49;33.30;;;12.83;;
18376;SDS011;9315;52.624;13.544;2022-11-20T01:19:21;24.40;;;11.80;;
18376;SDS011;9315;52.624;13.544;2022-11-20T01:21:51;29.43;;;12.33;;
18376;SDS011;9315;52.624;13.544;2022-11-20T01:24:21;26.97;;;11.67;;
18376;SDS011;9315;52.624;13.544;2022-11-20T01:26:49;28.57;;;12.10;;
18376;SDS011;9315;52.624;13.544;2022-11-20T01:29:18;30.00;;;12.73;;
18376;SDS011;9315;52.624;13.544;2022-11-20T01:31:50;28.20;;;11.87;;
18376;SDS011;9315;52.624;13.544;2022-11-20T01:34:19;24.63;;;11.87;;
18376;SDS011;9315;52.624;13.544;2022-11-20T01:36:48;26.40;;;11.57;;
18376;SDS011;9315;52.624;13.544;2022-11-20T01:39:17;27.53;;;11.63;;
18376;SDS011;9315;52.624;13.544;2022-11-20T01:41:51;22.07;;;11.37;;
18376;SDS011;9315;52.624;13.544;2022-11-20T01:44:48;23.23;;;11.13;;
18376;SDS011;9315;52.624;13.544;2022-11-20T01:50:16;25.43;;;11.07;;
18376;SDS011;9315;52.624;13.544;2022-11-20T01:53:01;22.67;;;10.80;;
18376;SDS011;9315;52.624;13.544;2022-11-20T01:55:33;22.40;;;11.30;;
18376;SDS011;9315;52.624;13.544;2022-11-20T01:58:07;22.27;;;10.83;;
18376;SDS011;9315;52.624;13.544;2022-11-20T02:00:35;25.50;;;11.33;;
18376;SDS011;9315;52.624;13.544;2022-11-20T02:03:09;25.30;;;11.33;;
18376;SDS011;9315;52.624;13.544;2022-11-20T02:05:46;26.23;;;10.87;;
18376;SDS011;9315;52.624;13.544;2022-11-20T02:08:45;27.17;;;10.93;;
18376;SDS011;9315;52.624;13.544;2022-11-20T02:11:12;23.37;;;11.83;;
18376;SDS011;9315;52.624;13.544;2022-11-20T02:13:39;24.77;;;10.53;;
18376;SDS011;9315;52.624;13.544;2022-11-20T02:16:11;26.30;;;11.10;;
18376;SDS011;9315;52.624;13.544;2022-11-20T02:19:13;25.67;;;11.80;;
18376;SDS011;9315;52.624;13.544;2022-11-20T02:21:59;28.30;;;11.30;;
18376;SDS011;9315;52.624;13.544;2022-11-20T02:24:40;22.67;;;10.70;;
18376;SDS011;9315;52.624;13.544;2022-11-20T02:27:10;21.87;;;9.53;;
18376;SDS011;9315;52.624;13.544;2022-11-20T02:29:43;22.20;;;10.03;;
18376;SDS011;9315;52.624;13.544;2022-11-20T02:32:34;28.87;;;11.50;;
18376;SDS011;9315;52.624;13.544;2022-11-20T02:35:06;25.40;;;11.07;;
18376;SDS011;9315;52.624;13.544;2022-11-20T02:37:44;21.77;;;10.17;;
18376;SDS011;9315;52.624;13.544;2022-11-20T02:40:14;25.43;;;11.60;;
18376;SDS011;9315;52.624;13.544;2022-11-20T02:42:42;27.47;;;11.07;;
18376;SDS011;9315;52.624;13.544;2022-11-20T02:45:09;21.87;;;9.83;;
18376;SDS011;9315;52.624;13.544;2022-11-20T02:47:36;23.23;;;10.63;;
18376;SDS011;9315;52.624;13.544;2022-11-20T02:50:04;19.33;;;10.77;;
18376;SDS011;9315;52.624;13.544;2022-11-20T02:52:32;23.13;;;11.00;;
18376;SDS011;9315;52.624;13.544;2022-11-20T02:54:59;23.43;;;12.43;;
18376;SDS011;9315;52.624;13.544;2022-11-20T02:57:26;21.83;;;10.50;;
18376;SDS011;9315;52.624;13.544;2022-11-20T02:59:54;20.57;;;10.90;;
18376;SDS011;9315;52.624;13.544;2022-11-20T03:02:21;20.77;;;10.67;;
18376;SDS011;9315;52.624;13.544;2022-11-20T03:04:48;22.07;;;11.30;;
18376;SDS011;9315;52.624;13.544;2022-11-20T03:07:15;21.87;;;11.50;;
18376;SDS011;9315;52.624;13.544;2022-11-20T03:09:42;21.83;;;10.57;;
18376;SDS011;9315;52.624;13.544;2022-11-20T03:12:09;23.17;;;10.97;;
18376;SDS011;9315;52.624;13.544;2022-11-20T03:14:36;24.53;;;11.43;;
18376;SDS011;9315;52.624;13.544;2022-11-20T03:17:03;20.47;;;10.17;;
18376;SDS011;9315;52.624;13.544;2022-11-20T03:19:30;21.00;;;10.93;;
18376;SDS011;9315;52.624;13.544;2022-11-20T03:21:57;26.90;;;11.93;;
18376;SDS011;9315;52.624;13.544;2022-11-20T03:24:24;18.77;;;8.77;;
18376;SDS011;9315;52.624;13.544;2022-11-20T03:26:51;24.17;;;11.53;;
18376;SDS011;9315;52.624;13.544;2022-11-20T03:29:18;25.27;;;11.17;;
18376;SDS011;9315;52.624;13.544;2022-11-20T03:31:45;26.33;;;12.37;;
18376;SDS011;9315;52.624;13.544;2022-11-20T03:34:12;24.53;;;10.40;;
18376;SDS011;9315;52.624;13.544;2022-11-20T03:36:40;24.17;;;11.90;;
18376;SDS011;9315;52.624;13.544;2022-11-20T03:39:08;25.23;;;11.87;;
18376;SDS011;9315;52.624;13.544;2022-11-20T03:41:37;25.63;;;12.90;;
18376;SDS011;9315;52.624;13.544;2022-11-20T03:44:08;25.23;;;12.80;;
18376;SDS011;9315;52.624;13.544;2022-11-20T03:46:37;26.07;;;12.63;;
18376;SDS011;9315;52.624;13.544;2022-11-20T03:49:05;24.93;;;12.80;;
18376;SDS011;9315;52.624;13.544;2022-11-20T03:51:33;24.20;;;12.27;;
18376;SDS011;9315;52.624;13.544;2022-11-20T03:54:03;23.70;;;11.57;;
18376;SDS011;9315;52.624;13.544;2022-11-20T03:56:34;25.43;;;11.70;;
18376;SDS011;9315;52.624;13.544;2022-11-20T03:59:05;23.20;;;11.30;;
18376;SDS011;9315;52.624;13.544;2022-11-20T04:01:34;32.47;;;12.87;;
18376;SDS011;9315;52.624;13.544;2022-11-20T04:04:11;27.00;;;11.37;;
18376;SDS011;9315;52.624;13.544;2022-11-20T04:06:38;23.83;;;12.63;;
18376;SDS011;9315;52.624;13.544;2022-11-20T04:09:06;27.10;;;12.43;;
18376;SDS011;9315;52.624;13.544;2022-11-20T04:11:34;24.20;;;12.43;;
18376;SDS011;9315;52.624;13.544;2022-11-20T04:14:04;28.10;;;12.23;;
18376;SDS011;9315;52.624;13.544;2022-11-20T04:16:38;24.03;;;12.00;;
18376;SDS011;9315;52.624;13.544;2022-11-20T04:19:06;28.33;;;12.97;;
18376;SDS011;9315;52.624;13.544;2022-11-20T04:21:39;27.00;;;11.20;;
18376;SDS011;9315;52.624;13.544;2022-11-20T04:24:06;22.77;;;11.07;;
18376;SDS011;9315;52.624;13.544;2022-11-20T04:26:34;23.30;;;11.63;;
18376;SDS011;9315;52.624;13.544;2022-11-20T04:29:04;26.03;;;12.93;;
18376;SDS011;9315;52.624;13.544;2022-11-20T04:31:33;25.77;;;12.20;;
18376;SDS011;9315;52.624;13.544;2022-11-20T04:34:01;24.80;;;12.07;;
18376;SDS011;9315;52.624;13.544;2022-11-20T04:36:32;27.07;;;12.53;;
18376;SDS011;9315;52.624;13.544;2022-11-20T04:39:01;24.57;;;11.60;;
18376;SDS011;9315;52.624;13.544;2022-11-20T04:41:32;26.87;;;12.57;;
18376;SDS011;9315;52.624;13.544;2022-11-20T04:44:03;28.53;;;13.43;;
18376;SDS011;9315;52.624;13.544;2022-11-20T04:46:41;28.87;;;13.23;;
18376;SDS011;9315;52.624;13.544;2022-11-20T04:49:10;30.73;;;13.77;;
18376;SDS011;9315;52.624;13.544;2022-11-20T04:51:38;28.73;;;12.87;;
18376;SDS011;9315;52.624;13.544;2022-11-20T04:54:05;29.60;;;12.90;;
18376;SDS011;9315;52.624;13.544;2022-11-20T04:56:32;31.33;;;12.30;;
18376;SDS011;9315;52.624;13.544;2022-11-20T04:58:59;28.27;;;13.60;;
18376;SDS011;9315;52.624;13.544;2022-11-20T05:01:28;29.10;;;14.37;;
18376;SDS011;9315;52.624;13.544;2022-11-20T05:03:55;29.97;;;14.27;;
18376;SDS011;9315;52.624;13.544;2022-11-20T05:06:22;29.70;;;13.80;;
18376;SDS011;9315;52.624;13.544;2022-11-20T05:08:49;30.73;;;14.33;;
18376;SDS011;9315;52.624;13.544;2022-11-20T05:11:18;27.77;;;13.60;;
18376;SDS011;9315;52.624;13.544;2022-11-20T05:13:47;28.40;;;12.03;;
18376;SDS011;9315;52.624;13.544;2022-11-20T05:16:21;29.20;;;13.53;;
18376;SDS011;9315;52.624;13.544;2022-11-20T05:18:50;29.13;;;13.37;;
18376;SDS011;9315;52.624;13.544;2022-11-20T05:21:20;31.10;;;13.77;;
18376;SDS011;9315;52.624;13.544;2022-11-20T05:23:48;31.20;;;12.87;;
18376;SDS011;9315;52.624;13.544;2022-11-20T05:26:16;29.23;;;13.60;;
18376;SDS011;9315;52.624;13.544;2022-11-20T05:28:47;28.60;;;13.37;;
18376;SDS011;9315;52.624;13.544;2022-11-20T05:31:22;27.73;;;12.90;;
18376;SDS011;9315;52.624;13.544;2022-11-20T05:33:53;29.33;;;13.43;;
18376;SDS011;9315;52.624;13.544;2022-11-20T05:36:23;28.87;;;13.17;;
18376;SDS011;9315;52.624;13.544;2022-11-20T05:38:50;27.17;;;13.03;;
18376;SDS011;9315;52.624;13.544;2022-11-20T05:41:23;30.47;;;13.63;;
18376;SDS011;9315;52.624;13.544;2022-11-20T05:43:50;24.10;;;12.47;;
18376;SDS011;9315;52.624;13.544;2022-11-20T05:46:18;23.43;;;12.43;;
18376;SDS011;9315;52.624;13.544;2022-11-20T05:48:53;25.60;;;12.80;;
18376;SDS011;9315;52.624;13.544;2022-11-20T05:51:23;25.47;;;12.77;;
18376;SDS011;9315;52.624;13.544;2022-11-20T05:53:51;24.80;;;11.87;;
18376;SDS011;9315;52.624;13.544;2022-11-20T05:56:19;27.60;;;11.70;;
18376;SDS011;9315;52.624;13.544;2022-11-20T05:58:48;25.17;;;11.50;;
18376;SDS011;9315;52.624;13.544;2022-11-20T06:01:19;24.73;;;13.30;;
18376;SDS011;9315;52.624;13.544;2022-11-20T06:03:52;25.60;;;12.13;;
18376;SDS011;9315;52.624;13.544;2022-11-20T06:06:21;27.77;;;12.30;;
18376;SDS011;9315;52.624;13.544;2022-11-20T06:08:48;27.63;;;12.63;;
18376;SDS011;9315;52.624;13.544;2022-11-20T06:11:16;27.97;;;12.87;;
18376;SDS011;9315;52.624;13.544;2022-11-20T06:13:43;30.03;;;13.07;;
18376;SDS011;9315;52.624;13.544;2022-11-20T06:16:12;28.10;;;12.83;;
18376;SDS011;9315;52.624;13.544;2022-11-20T06:18:43;27.53;;;11.90;;
18376;SDS011;9315;52.624;13.544;2022-11-20T06:21:11;26.57;;;13.07;;
18376;SDS011;9315;52.624;13.544;2022-11-20T06:23:49;24.73;;;11.97;;
18376;SDS011;9315;52.624;13.544;2022-11-20T06:26:22;25.33;;;11.67;;
18376;SDS011;9315;52.624;13.544;2022-11-20T06:28:53;25.80;;;11.33;;
18376;SDS011;9315;52.624;13.544;2022-11-20T06:31:22;24.80;;;11.57;;
18376;SDS011;9315;52.624;13.544;2022-11-20T06:33:52;25.43;;;11.23;;
18376;SDS011;9315;52.624;13.544;2022-11-20T06:36:20;23.90;;;11.17;;
18376;SDS011;9315;52.624;13.544;2022-11-20T06:38:49;27.70;;;12.93;;
18376;SDS011;9315;52.624;13.544;2022-11-20T06:41:18;23.53;;;11.77;;
18376;SDS011;9315;52.624;13.544;2022-11-20T06:43:47;28.17;;;13.70;;
18376;SDS011;9315;52.624;13.544;2022-11-20T06:46:15;28.37;;;13.10;;
18376;SDS011;9315;52.624;13.544;2022-11-20T06:48:44;24.60;;;11.67;;
18376;SDS011;9315;52.624;13.544;2022-11-20T06:51:13;24.10;;;11.67;;
18376;SDS011;9315;52.624;13.544;2022-11-20T06:53:40;27.33;;;12.90;;
18376;SDS011;9315;52.624;13.544;2022-11-20T06:56:07;28.00;;;13.30;;
18376;SDS011;9315;52.624;13.544;2022-11-20T06:58:35;32.07;;;14.17;;
18376;SDS011;9315;52.624;13.544;2022-11-20T07:01:04;30.77;;;14.07;;
18376;SDS011;9315;52.624;13.544;2022-11-20T07:03:40;30.77;;;14.10;;
18376;SDS011;9315;52.624;13.544;2022-11-20T07:06:08;37.23;;;14.43;;
18376;SDS011;9315;52.624;13.544;2022-11-20T07:08:43;30.97;;;14.33;;
18376;SDS011;9315;52.624;13.544;2022-11-20T07:11:11;29.13;;;13.23;;
18376;SDS011;9315;52.624;13.544;2022-11-20T07:13:38;32.80;;;13.50;;
18376;SDS011;9315;52.624;13.544;2022-11-20T07:16:07;30.53;;;12.50;;
18376;SDS011;9315;52.624;13.544;2022-11-20T07:18:35;25.33;;;11.87;;
18376;SDS011;9315;52.624;13.544;2022-11-20T07:21:03;28.27;;;12.97;;
18376;SDS011;9315;52.624;13.544;2022-11-20T07:23:34;25.53;;;12.60;;
18376;SDS011;9315;52.624;13.544;2022-11-20T07:26:05;25.87;;;12.10;;
18376;SDS011;9315;52.624;13.544;2022-11-20T07:28:36;26.17;;;13.13;;
18376;SDS011;9315;52.624;13.544;2022-11-20T07:31:03;24.57;;;12.63;;
18376;SDS011;9315;52.624;13.544;2022-11-20T07:33:33;27.90;;;13.70;;
18376;SDS011;9315;52.624;13.544;2022-11-20T07:36:00;22.00;;;11.10;;
18376;SDS011;9315;52.624;13.544;2022-11-20T07:38:28;26.50;;;12.60;;
18376;SDS011;9315;52.624;13.544;2022-11-20T07:40:56;25.97;;;13.43;;
18376;SDS011;9315;52.624;13.544;2022-11-20T07:43:24;25.63;;;12.47;;
18376;SDS011;9315;52.624;13.544;2022-11-20T07:45:51;28.77;;;12.77;;
18376;SDS011;9315;52.624;13.544;2022-11-20T07:48:22;26.87;;;12.13;;
18376;SDS011;9315;52.624;13.544;2022-11-20T07:50:56;23.47;;;12.17;;
18376;SDS011;9315;52.624;13.544;2022-11-20T07:53:24;25.07;;;13.87;;
18376;SDS011;9315;52.624;13.544;2022-11-20T07:55:51;26.43;;;12.73;;
18376;SDS011;9315;52.624;13.544;2022-11-20T07:58:19;26.50;;;12.27;;
18376;SDS011;9315;52.624;13.544;2022-11-20T08:00:47;24.50;;;12.10;;
18376;SDS011;9315;52.624;13.544;2022-11-20T08:03:15;21.60;;;11.77;;
18376;SDS011;9315;52.624;13.544;2022-11-20T08:05:49;23.03;;;12.53;;
18376;SDS011;9315;52.624;13.544;2022-11-20T08:08:16;21.87;;;11.63;;
18376;SDS011;9315;52.624;13.544;2022-11-20T08:10:43;22.13;;;11.77;;
18376;SDS011;9315;52.624;13.544;2022-11-20T08:13:11;37.87;;;21.47;;
18376;SDS011;9315;52.624;13.544;2022-11-20T08:15:56;22.83;;;11.67;;
18376;SDS011;9315;52.624;13.544;2022-11-20T08:18:23;24.93;;;12.63;;
18376;SDS011;9315;52.624;13.544;2022-11-20T08:21:02;22.83;;;11.87;;
18376;SDS011;9315;52.624;13.544;2022-11-20T08:23:30;22.63;;;12.13;;
18376;SDS011;9315;52.624;13.544;2022-11-20T08:25:57;24.07;;;12.43;;
18376;SDS011;9315;52.624;13.544;2022-11-20T08:28:24;22.60;;;12.27;;
18376;SDS011;9315;52.624;13.544;2022-11-20T08:30:51;24.57;;;13.63;;
18376;SDS011;9315;52.624;13.544;2022-11-20T08:33:28;22.17;;;11.60;;
18376;SDS011;9315;52.624;13.544;2022-11-20T08:35:59;24.30;;;12.73;;
18376;SDS011;9315;52.624;13.544;2022-11-20T08:38:31;24.00;;;13.33;;
18376;SDS011;9315;52.624;13.544;2022-11-20T08:40:59;25.83;;;13.40;;
18376;SDS011;9315;52.624;13.544;2022-11-20T08:43:47;25.60;;;12.50;;
18376;SDS011;9315;52.624;13.544;2022-11-20T08:46:15;25.67;;;13.73;;
18376;SDS011;9315;52.624;13.544;2022-11-20T08:48:43;24.20;;;12.83;;
18376;SDS011;9315;52.624;13.544;2022-11-20T08:51:11;24.07;;;11.37;;
18376;SDS011;9315;52.624;13.544;2022-11-20T08:53:39;21.20;;;12.07;;
18376;SDS011;9315;52.624;13.544;2022-11-20T08:56:07;20.97;;;11.10;;
18376;SDS011;9315;52.624;13.544;2022-11-20T08:58:35;20.20;;;11.90;;
18376;SDS011;9315;52.624;13.544;2022-11-20T09:01:24;19.63;;;10.77;;
18376;SDS011;9315;52.624;13.544;2022-11-20T09:03:54;23.60;;;12.00;;
18376;SDS011;9315;52.624;13.544;2022-11-20T09:06:25;23.27;;;12.40;;
18376;SDS011;9315;52.624;13.544;2022-11-20T09:08:53;21.10;;;11.53;;
18376;SDS011;9315;52.624;13.544;2022-11-20T09:11:21;24.53;;;13.50;;
18376;SDS011;9315;52.624;13.544;2022-11-20T09:13:48;23.57;;;12.37;;
18376;SDS011;9315;52.624;13.544;2022-11-20T09:16:15;23.67;;;12.60;;
18376;SDS011;9315;52.624;13.544;2022-11-20T09:18:42;25.03;;;13.67;;
18376;SDS011;9315;52.624;13.544;2022-11-20T09:21:10;25.43;;;13.07;;
18376;SDS011;9315;52.624;13.544;2022-11-20T09:23:39;26.90;;;13.70;;
18376;SDS011;9315;52.624;13.544;2022-11-20T09:26:08;27.87;;;13.77;;
18376;SDS011;9315;52.624;13.544;2022-11-20T09:28:41;25.00;;;13.23;;
18376;SDS011;9315;52.624;13.544;2022-11-20T09:31:08;28.00;;;13.30;;
18376;SDS011;9315;52.624;13.544;2022-11-20T09:33:50;25.67;;;13.03;;
18376;SDS011;9315;52.624;13.544;2022-11-20T09:36:17;24.00;;;12.63;;
18376;SDS011;9315;52.624;13.544;2022-11-20T09:38:45;24.50;;;13.60;;
18376;SDS011;9315;52.624;13.544;2022-11-20T09:47:44;26.17;;;13.17;;
18376;SDS011;9315;52.624;13.544;2022-11-20T09:50:31;25.23;;;13.33;;
18376;SDS011;9315;52.624;13.544;2022-11-20T09:56:03;25.97;;;14.13;;
18376;SDS011;9315;52.624;13.544;2022-11-20T09:58:41;25.97;;;12.80;;
18376;SDS011;9315;52.624;13.544;2022-11-20T10:01:14;23.63;;;11.80;;
18376;SDS011;9315;52.624;13.544;2022-11-20T10:09:58;22.97;;;12.43;;
18376;SDS011;9315;52.624;13.544;2022-11-20T10:21:27;22.00;;;12.13;;
18376;SDS011;9315;52.624;13.544;2022-11-20T10:27:44;20.37;;;11.43;;
18376;SDS011;9315;52.624;13.544;2022-11-20T10:30:38;19.90;;;11.33;;
18376;SDS011;9315;52.624;13.544;2022-11-20T10:33:19;21.40;;;11.97;;
18376;SDS011;9315;52.624;13.544;2022-11-20T10:39:28;20.87;;;11.73;;
18376;SDS011;9315;52.624;13.544;2022-11-20T10:42:44;21.63;;;11.90;;
18376;SDS011;9315;52.624;13.544;2022-11-20T10:48:29;18.77;;;10.10;;
18376;SDS011;9315;52.624;13.544;2022-11-20T10:51:07;21.90;;;12.20;;
18376;SDS011;9315;52.624;13.544;2022-11-20T11:00:41;23.60;;;12.87;;
18376;SDS011;9315;52.624;13.544;2022-11-20T11:03:25;18.40;;;10.60;;
18376;SDS011;9315;52.624;13.544;2022-11-20T11:08:56;21.03;;;11.63;;
18376;SDS011;9315;52.624;13.544;2022-11-20T11:11:30;21.07;;;10.73;;
18376;SDS011;9315;52.624;13.544;2022-11-20T11:16:53;29.03;;;13.60;;
18376;SDS011;9315;52.624;13.544;2022-11-20T11:19:24;22.87;;;13.03;;
18376;SDS011;9315;52.624;13.544;2022-11-20T11:21:52;19.07;;;10.90;;
18376;SDS011;9315;52.624;13.544;2022-11-20T11:24:24;16.20;;;9.70;;
18376;SDS011;9315;52.624;13.544;2022-11-20T11:27:13;21.83;;;11.40;;
18376;SDS011;9315;52.624;13.544;2022-11-20T11:29:44;19.13;;;11.13;;
18376;SDS011;9315;52.624;13.544;2022-11-20T11:32:19;25.07;;;14.07;;
18376;SDS011;9315;52.624;13.544;2022-11-20T11:35:01;29.30;;;16.53;;
18376;SDS011;9315;52.624;13.544;2022-11-20T11:37:36;23.10;;;12.83;;
18376;SDS011;9315;52.624;13.544;2022-11-20T11:40:05;19.30;;;9.90;;
18376;SDS011;9315;52.624;13.544;2022-11-20T11:42:54;26.37;;;15.47;;
18376;SDS011;9315;52.624;13.544;2022-11-20T11:45:31;21.33;;;12.30;;
18376;SDS011;9315;52.624;13.544;2022-11-20T11:48:00;21.30;;;12.23;;
18376;SDS011;9315;52.624;13.544;2022-11-20T11:50:29;20.17;;;11.93;;
18376;SDS011;9315;52.624;13.544;2022-11-20T11:53:12;15.47;;;8.50;;
18376;SDS011;9315;52.624;13.544;2022-11-20T11:55:48;14.80;;;8.83;;
18376;SDS011;9315;52.624;13.544;2022-11-20T11:58:38;16.93;;;9.27;;
18376;SDS011;9315;52.624;13.544;2022-11-20T12:07:38;16.00;;;9.57;;
18376;SDS011;9315;52.624;13.544;2022-11-20T12:10:35;18.90;;;9.53;;
18376;SDS011;9315;52.624;13.544;2022-11-20T12:16:30;16.77;;;8.17;;
18376;SDS011;9315;52.624;13.544;2022-11-20T12:19:07;15.03;;;8.50;;
18376;SDS011;9315;52.624;13.544;2022-11-20T12:31:37;17.13;;;9.47;;
18376;SDS011;9315;52.624;13.544;2022-11-20T12:35:18;24.50;;;13.87;;
18376;SDS011;9315;52.624;13.544;2022-11-20T12:41:59;33.87;;;16.77;;
18376;SDS011;9315;52.624;13.544;2022-11-20T12:54:36;15.83;;;7.63;;
18376;SDS011;9315;52.624;13.544;2022-11-20T13:00:41;12.87;;;7.43;;
18376;SDS011;9315;52.624;13.544;2022-11-20T13:06:20;12.83;;;6.67;;
18376;SDS011;9315;52.624;13.544;2022-11-20T13:08:57;16.30;;;8.43;;
18376;SDS011;9315;52.624;13.544;2022-11-20T13:14:09;15.80;;;9.17;;
18376;SDS011;9315;52.624;13.544;2022-11-20T13:19:55;15.03;;;8.43;;
18376;SDS011;9315;52.624;13.544;2022-11-20T13:22:28;14.27;;;7.57;;
18376;SDS011;9315;52.624;13.544;2022-11-20T13:25:28;15.47;;;7.87;;
18376;SDS011;9315;52.624;13.544;2022-11-20T13:30:36;12.67;;;7.03;;
18376;SDS011;9315;52.624;13.544;2022-11-20T13:33:23;9.80;;;5.00;;
18376;SDS011;9315;52.624;13.544;2022-11-20T13:36:02;11.47;;;6.37;;
18376;SDS011;9315;52.624;13.544;2022-11-20T13:38:49;11.40;;;7.30;;
18376;SDS011;9315;52.624;13.544;2022-11-20T13:47:21;12.33;;;7.00;;
18376;SDS011;9315;52.624;13.544;2022-11-20T13:49:57;14.17;;;7.60;;
18376;SDS011;9315;52.624;13.544;2022-11-20T14:02:10;15.20;;;8.30;;
18376;SDS011;9315;52.624;13.544;2022-11-20T14:04:42;14.33;;;8.37;;
18376;SDS011;9315;52.624;13.544;2022-11-20T14:07:17;15.50;;;8.57;;
18376;SDS011;9315;52.624;13.544;2022-11-20T14:09:50;16.10;;;8.73;;
18376;SDS011;9315;52.624;13.544;2022-11-20T14:12:33;13.33;;;8.03;;
18376;SDS011;9315;52.624;13.544;2022-11-20T14:15:01;16.67;;;9.47;;
18376;SDS011;9315;52.624;13.544;2022-11-20T14:17:35;18.77;;;10.57;;
18376;SDS011;9315;52.624;13.544;2022-11-20T14:20:06;15.20;;;8.50;;
18376;SDS011;9315;52.624;13.544;2022-11-20T14:22:47;18.57;;;9.80;;
18376;SDS011;9315;52.624;13.544;2022-11-20T14:27:44;15.80;;;9.50;;
18376;SDS011;9315;52.624;13.544;2022-11-20T14:30:44;25.30;;;12.30;;
18376;SDS011;9315;52.624;13.544;2022-11-20T14:33:14;19.00;;;10.17;;
18376;SDS011;9315;52.624;13.544;2022-11-20T14:35:48;23.00;;;13.13;;
18376;SDS011;9315;52.624;13.544;2022-11-20T14:38:24;24.50;;;14.93;;
18376;SDS011;9315;52.624;13.544;2022-11-20T14:41:05;18.27;;;12.17;;
18376;SDS011;9315;52.624;13.544;2022-11-20T14:43:46;15.40;;;7.67;;
18376;SDS011;9315;52.624;13.544;2022-11-20T14:46:34;19.53;;;10.17;;
18376;SDS011;9315;52.624;13.544;2022-11-20T14:49:02;16.07;;;9.43;;
18376;SDS011;9315;52.624;13.544;2022-11-20T14:51:35;15.97;;;8.83;;
18376;SDS011;9315;52.624;13.544;2022-11-20T14:56:55;16.70;;;8.57;;
18376;SDS011;9315;52.624;13.544;2022-11-20T14:59:30;15.70;;;8.57;;
18376;SDS011;9315;52.624;13.544;2022-11-20T15:02:03;18.17;;;8.17;;
18376;SDS011;9315;52.624;13.544;2022-11-20T15:07:23;23.47;;;12.27;;
18376;SDS011;9315;52.624;13.544;2022-11-20T15:10:01;18.27;;;10.50;;
18376;SDS011;9315;52.624;13.544;2022-11-20T15:12:46;18.27;;;8.90;;
18376;SDS011;9315;52.624;13.544;2022-11-20T15:15:29;16.97;;;9.50;;
18376;SDS011;9315;52.624;13.544;2022-11-20T15:18:16;15.50;;;8.57;;
18376;SDS011;9315;52.624;13.544;2022-11-20T15:20:57;15.97;;;9.10;;
18376;SDS011;9315;52.624;13.544;2022-11-20T15:23:29;15.97;;;8.57;;
18376;SDS011;9315;52.624;13.544;2022-11-20T15:25:56;17.27;;;9.00;;
18376;SDS011;9315;52.624;13.544;2022-11-20T15:28:28;15.47;;;8.27;;
18376;SDS011;9315;52.624;13.544;2022-11-20T15:31:10;15.67;;;8.10;;
18376;SDS011;9315;52.624;13.544;2022-11-20T15:33:39;14.27;;;7.70;;
18376;SDS011;9315;52.624;13.544;2022-11-20T15:36:06;18.70;;;8.83;;
18376;SDS011;9315;52.624;13.544;2022-11-20T15:38:34;16.53;;;8.40;;
18376;SDS011;9315;52.624;13.544;2022-11-20T15:41:01;14.83;;;8.23;;
18376;SDS011;9315;52.624;13.544;2022-11-20T15:43:28;12.90;;;7.20;;
18376;SDS011;9315;52.624;13.544;2022-11-20T15:45:59;14.80;;;7.70;;
18376;SDS011;9315;52.624;13.544;2022-11-20T15:48:41;16.97;;;8.60;;
18376;SDS011;9315;52.624;13.544;2022-11-20T15:54:15;15.90;;;7.37;;
18376;SDS011;9315;52.624;13.544;2022-11-20T15:56:47;14.43;;;8.00;;
18376;SDS011;9315;52.624;13.544;2022-11-20T15:59:18;12.70;;;7.10;;
18376;SDS011;9315;52.624;13.544;2022-11-20T16:01:45;19.33;;;8.80;;
18376;SDS011;9315;52.624;13.544;2022-11-20T16:04:13;18.10;;;7.23;;
18376;SDS011;9315;52.624;13.544;2022-11-20T16:06:42;18.00;;;7.67;;
18376;SDS011;9315;52.624;13.544;2022-11-20T16:09:10;14.03;;;7.30;;
18376;SDS011;9315;52.624;13.544;2022-11-20T16:11:38;15.83;;;8.50;;
18376;SDS011;9315;52.624;13.544;2022-11-20T16:14:05;12.73;;;7.40;;
18376;SDS011;9315;52.624;13.544;2022-11-20T16:16:51;16.13;;;8.70;;
18376;SDS011;9315;52.624;13.544;2022-11-20T16:19:18;14.00;;;7.93;;
18376;SDS011;9315;52.624;13.544;2022-11-20T16:21:45;18.67;;;7.83;;
18376;SDS011;9315;52.624;13.544;2022-11-20T16:24:13;17.17;;;9.23;;
18376;SDS011;9315;52.624;13.544;2022-11-20T16:26:41;17.37;;;8.70;;
18376;SDS011;9315;52.624;13.544;2022-11-20T16:29:12;18.30;;;9.50;;
18376;SDS011;9315;52.624;13.544;2022-11-20T16:31:42;24.77;;;12.37;;
18376;SDS011;9315;52.624;13.544;2022-11-20T16:34:10;35.63;;;14.57;;
18376;SDS011;9315;52.624;13.544;2022-11-20T16:36:40;78.03;;;31.37;;
18376;SDS011;9315;52.624;13.544;2022-11-20T16:39:11;22.33;;;11.43;;
18376;SDS011;9315;52.624;13.544;2022-11-20T16:41:41;19.20;;;10.83;;
18376;SDS011;9315;52.624;13.544;2022-11-20T16:44:09;15.80;;;8.70;;
18376;SDS011;9315;52.624;13.544;2022-11-20T16:46:37;20.83;;;9.57;;
18376;SDS011;9315;52.624;13.544;2022-11-20T16:49:06;18.10;;;9.90;;
18376;SDS011;9315;52.624;13.544;2022-11-20T16:51:39;21.13;;;10.53;;
18376;SDS011;9315;52.624;13.544;2022-11-20T16:54:08;25.27;;;9.90;;
18376;SDS011;9315;52.624;13.544;2022-11-20T16:56:38;18.40;;;8.47;;
18376;SDS011;9315;52.624;13.544;2022-11-20T16:59:05;17.93;;;9.30;;